Terminal Aerodrome Forecast
Issued by NWS

Home | Current Version | Previous Version | Text Only | Print | Product List | Glossary On
Versions: 1 2 3 4 5 6 7 8 9 10 11 12 13 14
000
FTUS45 KABQ 231100
TAFGUP
TAF
KGUP 231126Z 2312/2412 22015KT P6SM SCT120
     FM231500 23018G28KT P6SM FEW120
     FM232100 26022G32KT P6SM FEW120
     FM240200 35011KT P6SM SKC
     FM240500 02007KT P6SM FEW250=

USA.gov is the U.S. government's official web portal to all federal, state and local government web resources and services.